Airfield :
LOGIN :

Register | Disclaimer

   EN    FR    IT 

 










Legend :    VFR   Marginal VFR   IFR   Intensive IFR   Very Intensive IFR
Visi :
Ceiling :
>= 8 km
>= 3000ft
5 to 8 km
1000 to 3000 ft
1500m to 5 km
500 to 1000 ft
800 to 1500m
200 to 500 ft
< 800m
< 200 ft
Symbols :   Thunderstorms  Fog  Heavy snow  Heavy precipitations  Wind > 20 kt
SIGMETs :     Misc.  Thunderstorms  Icing  Turbulence  Mountain Waves  Volcanic Ashes







- Airport Elevation : 231 ft
- IATA code : WTN


EGXW - RAF Waddington

CURRENT METAR :
  • 150950Z 32014KT 9999 FEW020 02/01 Q0996 BLU NOSIG

EXPIRED METARs :
  • 150850Z 32015KT 9999 FEW020 02/00 Q0995 BLU NOSIG
  • 150750Z 32013KT 9999 FEW020 02/00 Q0994 BLU NOSIG

TAF AMD TAF EGXW
Valid from the 15 at 09:00 until the 16 at 03:00 UTC


150912Z 1509/1603 33016KT 9999 SCT025
PROB30
TEMPO 1509/1519 33018G28KT 6000 SHRA BKN016
TEMPO 1519/1524 SCT016
BECMG 1523/1602 30010KT
No reported NOTAMs for that airfield.



MET'MAP, your aeronautical weather chart ! - Copyright ORBIFLY December 2007 - Disclaimer

ORBIFLY MET'MAP TEAM :

Programming & Development : Alexandra Zaïnal
Concept & Development : Baudouin d'Aumeries
Co-Development & Prog : Marc-Olivier Méhu
Technical & hardware support : Manuel Goepfert

Contact : metmap@orbifly.com




SOURCES & CREDITS :

   NOAA